sensor_id;sensor_type;location;lat;lon;timestamp;P1;durP1;ratioP1;P2;durP2;ratioP2
35364;SDS011;21464;48.112;11.530;2023-04-15T00:00:21;2.87;;;2.57;;
35364;SDS011;21464;48.112;11.530;2023-04-15T00:02:47;4.40;;;3.20;;
35364;SDS011;21464;48.112;11.530;2023-04-15T00:05:14;4.90;;;3.67;;
35364;SDS011;21464;48.112;11.530;2023-04-15T00:07:41;6.87;;;3.77;;
35364;SDS011;21464;48.112;11.530;2023-04-15T00:10:07;5.17;;;3.77;;
35364;SDS011;21464;48.112;11.530;2023-04-15T00:12:34;3.43;;;2.90;;
35364;SDS011;21464;48.112;11.530;2023-04-15T00:15:00;4.23;;;3.33;;
35364;SDS011;21464;48.112;11.530;2023-04-15T00:17:27;4.23;;;3.20;;
35364;SDS011;21464;48.112;11.530;2023-04-15T00:19:53;4.93;;;3.23;;
35364;SDS011;21464;48.112;11.530;2023-04-15T00:22:19;6.60;;;4.27;;
35364;SDS011;21464;48.112;11.530;2023-04-15T00:24:45;4.00;;;3.40;;
35364;SDS011;21464;48.112;11.530;2023-04-15T00:27:11;5.60;;;3.30;;
35364;SDS011;21464;48.112;11.530;2023-04-15T00:29:38;4.57;;;3.37;;
35364;SDS011;21464;48.112;11.530;2023-04-15T00:32:04;4.50;;;3.00;;
35364;SDS011;21464;48.112;11.530;2023-04-15T00:34:32;3.20;;;2.67;;
35364;SDS011;21464;48.112;11.530;2023-04-15T00:36:58;3.27;;;2.97;;
35364;SDS011;21464;48.112;11.530;2023-04-15T00:39:24;3.27;;;3.03;;
35364;SDS011;21464;48.112;11.530;2023-04-15T00:41:50;3.57;;;3.17;;
35364;SDS011;21464;48.112;11.530;2023-04-15T00:44:17;4.27;;;3.37;;
35364;SDS011;21464;48.112;11.530;2023-04-15T00:46:43;5.70;;;3.40;;
35364;SDS011;21464;48.112;11.530;2023-04-15T00:49:10;3.60;;;3.00;;
35364;SDS011;21464;48.112;11.530;2023-04-15T00:51:37;6.90;;;3.23;;
35364;SDS011;21464;48.112;11.530;2023-04-15T00:54:04;4.40;;;3.30;;
35364;SDS011;21464;48.112;11.530;2023-04-15T00:56:34;5.57;;;3.27;;
35364;SDS011;21464;48.112;11.530;2023-04-15T00:59:01;4.60;;;3.50;;
35364;SDS011;21464;48.112;11.530;2023-04-15T01:01:27;3.57;;;3.27;;
35364;SDS011;21464;48.112;11.530;2023-04-15T01:03:54;4.60;;;3.23;;
35364;SDS011;21464;48.112;11.530;2023-04-15T01:06:22;5.57;;;3.27;;
35364;SDS011;21464;48.112;11.530;2023-04-15T01:08:49;6.60;;;3.97;;
35364;SDS011;21464;48.112;11.530;2023-04-15T01:11:15;3.80;;;3.47;;
35364;SDS011;21464;48.112;11.530;2023-04-15T01:13:42;6.47;;;3.43;;
35364;SDS011;21464;48.112;11.530;2023-04-15T01:16:08;5.87;;;3.47;;
35364;SDS011;21464;48.112;11.530;2023-04-15T01:18:35;3.73;;;3.40;;
35364;SDS011;21464;48.112;11.530;2023-04-15T01:21:03;3.43;;;2.73;;
35364;SDS011;21464;48.112;11.530;2023-04-15T01:23:30;5.37;;;3.53;;
35364;SDS011;21464;48.112;11.530;2023-04-15T01:25:57;4.07;;;3.27;;
35364;SDS011;21464;48.112;11.530;2023-04-15T01:28:24;4.57;;;3.20;;
35364;SDS011;21464;48.112;11.530;2023-04-15T01:31:04;5.70;;;3.47;;
35364;SDS011;21464;48.112;11.530;2023-04-15T01:33:36;4.33;;;3.93;;
35364;SDS011;21464;48.112;11.530;2023-04-15T01:36:21;6.40;;;3.90;;
35364;SDS011;21464;48.112;11.530;2023-04-15T01:38:47;3.73;;;3.13;;
35364;SDS011;21464;48.112;11.530;2023-04-15T01:41:13;3.83;;;3.53;;
35364;SDS011;21464;48.112;11.530;2023-04-15T01:43:41;4.07;;;3.60;;
35364;SDS011;21464;48.112;11.530;2023-04-15T01:46:09;5.70;;;3.50;;
35364;SDS011;21464;48.112;11.530;2023-04-15T01:48:37;5.77;;;3.33;;
35364;SDS011;21464;48.112;11.530;2023-04-15T01:51:05;6.90;;;3.40;;
35364;SDS011;21464;48.112;11.530;2023-04-15T01:53:32;4.37;;;3.13;;
35364;SDS011;21464;48.112;11.530;2023-04-15T01:56:00;5.53;;;3.50;;
35364;SDS011;21464;48.112;11.530;2023-04-15T01:58:28;5.70;;;3.60;;
35364;SDS011;21464;48.112;11.530;2023-04-15T02:00:56;4.93;;;3.40;;
35364;SDS011;21464;48.112;11.530;2023-04-15T02:03:24;4.60;;;3.30;;
35364;SDS011;21464;48.112;11.530;2023-04-15T02:05:53;5.67;;;3.33;;
35364;SDS011;21464;48.112;11.530;2023-04-15T02:08:21;5.13;;;3.47;;
35364;SDS011;21464;48.112;11.530;2023-04-15T02:10:49;5.77;;;3.70;;
35364;SDS011;21464;48.112;11.530;2023-04-15T02:13:17;4.90;;;4.00;;
35364;SDS011;21464;48.112;11.530;2023-04-15T02:15:48;5.43;;;3.60;;
35364;SDS011;21464;48.112;11.530;2023-04-15T02:18:15;6.20;;;3.70;;
35364;SDS011;21464;48.112;11.530;2023-04-15T02:20:44;3.53;;;3.10;;
35364;SDS011;21464;48.112;11.530;2023-04-15T02:23:13;4.97;;;3.50;;
35364;SDS011;21464;48.112;11.530;2023-04-15T02:25:40;3.63;;;3.17;;
35364;SDS011;21464;48.112;11.530;2023-04-15T02:28:08;5.13;;;3.80;;
35364;SDS011;21464;48.112;11.530;2023-04-15T02:30:35;5.30;;;3.97;;
35364;SDS011;21464;48.112;11.530;2023-04-15T02:33:03;3.80;;;3.50;;
35364;SDS011;21464;48.112;11.530;2023-04-15T02:35:30;7.07;;;3.90;;
35364;SDS011;21464;48.112;11.530;2023-04-15T02:37:58;4.27;;;3.30;;
35364;SDS011;21464;48.112;11.530;2023-04-15T02:40:27;3.43;;;3.03;;
35364;SDS011;21464;48.112;11.530;2023-04-15T02:42:54;5.70;;;4.77;;
35364;SDS011;21464;48.112;11.530;2023-04-15T02:45:22;6.53;;;4.10;;
35364;SDS011;21464;48.112;11.530;2023-04-15T02:47:53;6.53;;;4.17;;
35364;SDS011;21464;48.112;11.530;2023-04-15T02:50:21;6.30;;;3.43;;
35364;SDS011;21464;48.112;11.530;2023-04-15T02:52:49;5.23;;;3.30;;
35364;SDS011;21464;48.112;11.530;2023-04-15T02:55:18;4.67;;;3.17;;
35364;SDS011;21464;48.112;11.530;2023-04-15T02:57:46;5.17;;;3.37;;
35364;SDS011;21464;48.112;11.530;2023-04-15T03:00:13;5.07;;;3.27;;
35364;SDS011;21464;48.112;11.530;2023-04-15T03:02:44;5.10;;;3.37;;
35364;SDS011;21464;48.112;11.530;2023-04-15T03:05:13;4.30;;;2.67;;
35364;SDS011;21464;48.112;11.530;2023-04-15T03:07:47;5.83;;;2.93;;
35364;SDS011;21464;48.112;11.530;2023-04-15T03:10:15;5.40;;;3.10;;
35364;SDS011;21464;48.112;11.530;2023-04-15T03:12:42;5.57;;;3.20;;
35364;SDS011;21464;48.112;11.530;2023-04-15T03:15:14;4.03;;;3.30;;
35364;SDS011;21464;48.112;11.530;2023-04-15T03:17:46;5.20;;;2.97;;
35364;SDS011;21464;48.112;11.530;2023-04-15T03:20:15;5.07;;;2.83;;
35364;SDS011;21464;48.112;11.530;2023-04-15T03:22:43;4.00;;;3.20;;
35364;SDS011;21464;48.112;11.530;2023-04-15T03:25:10;3.13;;;2.87;;
35364;SDS011;21464;48.112;11.530;2023-04-15T03:27:38;5.83;;;3.10;;
35364;SDS011;21464;48.112;11.530;2023-04-15T03:30:06;7.30;;;3.10;;
35364;SDS011;21464;48.112;11.530;2023-04-15T03:32:37;5.23;;;3.27;;
35364;SDS011;21464;48.112;11.530;2023-04-15T03:35:07;3.27;;;2.67;;
35364;SDS011;21464;48.112;11.530;2023-04-15T03:37:35;4.43;;;3.23;;
35364;SDS011;21464;48.112;11.530;2023-04-15T03:40:03;5.33;;;2.60;;
35364;SDS011;21464;48.112;11.530;2023-04-15T03:42:30;4.80;;;2.83;;
35364;SDS011;21464;48.112;11.530;2023-04-15T03:44:58;5.27;;;3.17;;
35364;SDS011;21464;48.112;11.530;2023-04-15T03:47:26;4.40;;;3.13;;
35364;SDS011;21464;48.112;11.530;2023-04-15T03:49:54;6.47;;;3.30;;
35364;SDS011;21464;48.112;11.530;2023-04-15T03:52:21;2.93;;;2.73;;
35364;SDS011;21464;48.112;11.530;2023-04-15T03:54:49;4.87;;;2.97;;
35364;SDS011;21464;48.112;11.530;2023-04-15T03:57:16;3.40;;;3.07;;
35364;SDS011;21464;48.112;11.530;2023-04-15T03:59:44;4.47;;;3.13;;
35364;SDS011;21464;48.112;11.530;2023-04-15T04:02:11;5.60;;;3.23;;
35364;SDS011;21464;48.112;11.530;2023-04-15T04:04:39;6.40;;;3.10;;
35364;SDS011;21464;48.112;11.530;2023-04-15T04:07:06;3.90;;;3.10;;
35364;SDS011;21464;48.112;11.530;2023-04-15T04:09:34;3.40;;;2.87;;
35364;SDS011;21464;48.112;11.530;2023-04-15T04:12:02;3.53;;;2.90;;
35364;SDS011;21464;48.112;11.530;2023-04-15T04:14:30;4.40;;;3.03;;
35364;SDS011;21464;48.112;11.530;2023-04-15T04:16:57;5.50;;;2.77;;
35364;SDS011;21464;48.112;11.530;2023-04-15T04:19:25;4.00;;;2.57;;
35364;SDS011;21464;48.112;11.530;2023-04-15T04:21:52;4.20;;;2.80;;
35364;SDS011;21464;48.112;11.530;2023-04-15T04:24:20;5.40;;;2.83;;
35364;SDS011;21464;48.112;11.530;2023-04-15T04:26:47;3.57;;;2.77;;
35364;SDS011;21464;48.112;11.530;2023-04-15T04:29:15;4.40;;;2.80;;
35364;SDS011;21464;48.112;11.530;2023-04-15T04:31:42;3.90;;;2.77;;
35364;SDS011;21464;48.112;11.530;2023-04-15T04:34:10;5.63;;;2.83;;
35364;SDS011;21464;48.112;11.530;2023-04-15T04:36:38;3.43;;;2.70;;
35364;SDS011;21464;48.112;11.530;2023-04-15T04:39:05;4.60;;;2.63;;
35364;SDS011;21464;48.112;11.530;2023-04-15T04:41:33;4.70;;;2.30;;
35364;SDS011;21464;48.112;11.530;2023-04-15T04:44:00;5.03;;;2.97;;
35364;SDS011;21464;48.112;11.530;2023-04-15T04:46:28;3.17;;;2.40;;
35364;SDS011;21464;48.112;11.530;2023-04-15T04:48:56;3.40;;;2.47;;
35364;SDS011;21464;48.112;11.530;2023-04-15T04:51:23;3.03;;;2.77;;
35364;SDS011;21464;48.112;11.530;2023-04-15T04:53:51;6.27;;;2.60;;
35364;SDS011;21464;48.112;11.530;2023-04-15T04:56:18;5.20;;;2.57;;
35364;SDS011;21464;48.112;11.530;2023-04-15T04:58:46;5.63;;;2.50;;
35364;SDS011;21464;48.112;11.530;2023-04-15T05:01:13;4.67;;;2.60;;
35364;SDS011;21464;48.112;11.530;2023-04-15T05:03:41;3.03;;;2.70;;
35364;SDS011;21464;48.112;11.530;2023-04-15T05:06:09;3.13;;;2.83;;
35364;SDS011;21464;48.112;11.530;2023-04-15T05:08:36;3.70;;;2.40;;
35364;SDS011;21464;48.112;11.530;2023-04-15T05:11:04;5.77;;;2.40;;
35364;SDS011;21464;48.112;11.530;2023-04-15T05:13:32;2.07;;;1.80;;
35364;SDS011;21464;48.112;11.530;2023-04-15T05:15:59;2.80;;;1.70;;
35364;SDS011;21464;48.112;11.530;2023-04-15T05:18:27;3.67;;;2.30;;
35364;SDS011;21464;48.112;11.530;2023-04-15T05:20:55;2.70;;;2.03;;
35364;SDS011;21464;48.112;11.530;2023-04-15T05:23:22;4.13;;;2.60;;
35364;SDS011;21464;48.112;11.530;2023-04-15T05:25:50;3.87;;;2.10;;
35364;SDS011;21464;48.112;11.530;2023-04-15T05:28:18;2.10;;;1.90;;
35364;SDS011;21464;48.112;11.530;2023-04-15T05:30:45;3.53;;;2.60;;
35364;SDS011;21464;48.112;11.530;2023-04-15T05:33:13;2.40;;;2.00;;
35364;SDS011;21464;48.112;11.530;2023-04-15T05:35:40;5.93;;;2.13;;
35364;SDS011;21464;48.112;11.530;2023-04-15T05:38:08;3.47;;;2.50;;
35364;SDS011;21464;48.112;11.530;2023-04-15T05:40:37;3.87;;;2.27;;
35364;SDS011;21464;48.112;11.530;2023-04-15T05:43:04;3.17;;;1.70;;
35364;SDS011;21464;48.112;11.530;2023-04-15T05:45:32;4.00;;;2.10;;
35364;SDS011;21464;48.112;11.530;2023-04-15T05:47:59;5.70;;;2.40;;
35364;SDS011;21464;48.112;11.530;2023-04-15T05:50:27;1.67;;;1.57;;
35364;SDS011;21464;48.112;11.530;2023-04-15T05:52:54;5.77;;;2.00;;
35364;SDS011;21464;48.112;11.530;2023-04-15T05:55:22;7.27;;;2.20;;
35364;SDS011;21464;48.112;11.530;2023-04-15T05:57:49;5.43;;;2.33;;
35364;SDS011;21464;48.112;11.530;2023-04-15T06:00:17;1.60;;;1.50;;
35364;SDS011;21464;48.112;11.530;2023-04-15T06:02:44;3.43;;;1.80;;
35364;SDS011;21464;48.112;11.530;2023-04-15T06:05:12;4.17;;;2.43;;
35364;SDS011;21464;48.112;11.530;2023-04-15T06:07:40;5.10;;;1.90;;
35364;SDS011;21464;48.112;11.530;2023-04-15T06:10:09;3.83;;;2.07;;
35364;SDS011;21464;48.112;11.530;2023-04-15T06:12:37;3.53;;;1.60;;
35364;SDS011;21464;48.112;11.530;2023-04-15T06:15:05;3.77;;;2.40;;
35364;SDS011;21464;48.112;11.530;2023-04-15T06:17:33;2.57;;;2.37;;
35364;SDS011;21464;48.112;11.530;2023-04-15T06:20:00;4.50;;;2.00;;
35364;SDS011;21464;48.112;11.530;2023-04-15T06:22:28;3.37;;;1.80;;
35364;SDS011;21464;48.112;11.530;2023-04-15T06:24:55;2.93;;;2.00;;
35364;SDS011;21464;48.112;11.530;2023-04-15T06:27:23;3.07;;;1.80;;
35364;SDS011;21464;48.112;11.530;2023-04-15T06:29:50;4.10;;;1.80;;
35364;SDS011;21464;48.112;11.530;2023-04-15T06:32:18;3.40;;;1.90;;
35364;SDS011;21464;48.112;11.530;2023-04-15T06:34:45;2.27;;;1.60;;
35364;SDS011;21464;48.112;11.530;2023-04-15T06:37:13;2.13;;;1.77;;
35364;SDS011;21464;48.112;11.530;2023-04-15T06:39:42;2.40;;;1.40;;
35364;SDS011;21464;48.112;11.530;2023-04-15T06:42:10;2.73;;;1.90;;
35364;SDS011;21464;48.112;11.530;2023-04-15T06:44:38;2.20;;;1.70;;
35364;SDS011;21464;48.112;11.530;2023-04-15T06:47:06;3.17;;;1.70;;
35364;SDS011;21464;48.112;11.530;2023-04-15T06:49:33;3.40;;;2.27;;
35364;SDS011;21464;48.112;11.530;2023-04-15T06:52:01;1.30;;;1.20;;
35364;SDS011;21464;48.112;11.530;2023-04-15T06:54:30;2.93;;;1.87;;
35364;SDS011;21464;48.112;11.530;2023-04-15T06:56:58;2.50;;;1.90;;
35364;SDS011;21464;48.112;11.530;2023-04-15T06:59:25;2.97;;;1.60;;
35364;SDS011;21464;48.112;11.530;2023-04-15T07:01:53;1.23;;;1.20;;
35364;SDS011;21464;48.112;11.530;2023-04-15T07:04:21;4.83;;;1.47;;
35364;SDS011;21464;48.112;11.530;2023-04-15T07:06:48;4.30;;;2.13;;
35364;SDS011;21464;48.112;11.530;2023-04-15T07:20:53;5.23;;;2.03;;
35364;SDS011;21464;48.112;11.530;2023-04-15T07:23:21;2.87;;;1.70;;
35364;SDS011;21464;48.112;11.530;2023-04-15T07:25:49;1.63;;;1.43;;
35364;SDS011;21464;48.112;11.530;2023-04-15T07:28:17;3.83;;;2.00;;
35364;SDS011;21464;48.112;11.530;2023-04-15T07:30:45;4.97;;;2.00;;
35364;SDS011;21464;48.112;11.530;2023-04-15T07:33:12;1.60;;;1.50;;
35364;SDS011;21464;48.112;11.530;2023-04-15T07:35:40;3.30;;;1.80;;
35364;SDS011;21464;48.112;11.530;2023-04-15T07:38:07;2.97;;;1.73;;
35364;SDS011;21464;48.112;11.530;2023-04-15T07:40:35;2.77;;;1.70;;
35364;SDS011;21464;48.112;11.530;2023-04-15T07:43:02;2.63;;;1.70;;
35364;SDS011;21464;48.112;11.530;2023-04-15T07:45:31;3.27;;;1.70;;
35364;SDS011;21464;48.112;11.530;2023-04-15T07:47:58;2.60;;;2.10;;
35364;SDS011;21464;48.112;11.530;2023-04-15T07:50:26;2.60;;;1.70;;
35364;SDS011;21464;48.112;11.530;2023-04-15T07:52:54;3.50;;;1.60;;
35364;SDS011;21464;48.112;11.530;2023-04-15T07:55:22;4.23;;;2.03;;
35364;SDS011;21464;48.112;11.530;2023-04-15T07:57:49;2.30;;;1.77;;
35364;SDS011;21464;48.112;11.530;2023-04-15T08:00:17;3.67;;;1.73;;
35364;SDS011;21464;48.112;11.530;2023-04-15T08:02:46;3.43;;;1.90;;
35364;SDS011;21464;48.112;11.530;2023-04-15T08:05:14;2.70;;;1.60;;
35364;SDS011;21464;48.112;11.530;2023-04-15T08:07:41;2.27;;;1.63;;
35364;SDS011;21464;48.112;11.530;2023-04-15T08:10:09;4.63;;;1.97;;
35364;SDS011;21464;48.112;11.530;2023-04-15T08:12:37;1.83;;;1.40;;
35364;SDS011;21464;48.112;11.530;2023-04-15T08:15:04;2.13;;;1.30;;
35364;SDS011;21464;48.112;11.530;2023-04-15T08:17:34;1.63;;;1.50;;
35364;SDS011;21464;48.112;11.530;2023-04-15T08:20:02;3.50;;;1.43;;
35364;SDS011;21464;48.112;11.530;2023-04-15T08:22:30;2.00;;;1.80;;
35364;SDS011;21464;48.112;11.530;2023-04-15T08:24:58;2.07;;;1.73;;
35364;SDS011;21464;48.112;11.530;2023-04-15T08:27:25;4.33;;;2.33;;
35364;SDS011;21464;48.112;11.530;2023-04-15T08:29:53;5.23;;;1.77;;
35364;SDS011;21464;48.112;11.530;2023-04-15T08:32:20;1.87;;;1.77;;
35364;SDS011;21464;48.112;11.530;2023-04-15T08:34:48;4.50;;;2.10;;
35364;SDS011;21464;48.112;11.530;2023-04-15T08:37:16;2.07;;;1.87;;
35364;SDS011;21464;48.112;11.530;2023-04-15T08:39:44;3.07;;;1.63;;
35364;SDS011;21464;48.112;11.530;2023-04-15T08:42:15;2.60;;;1.87;;
35364;SDS011;21464;48.112;11.530;2023-04-15T08:44:43;2.87;;;2.40;;
35364;SDS011;21464;48.112;11.530;2023-04-15T08:47:12;2.70;;;2.00;;
35364;SDS011;21464;48.112;11.530;2023-04-15T08:49:43;4.37;;;2.53;;
35364;SDS011;21464;48.112;11.530;2023-04-15T08:52:11;3.27;;;2.17;;
35364;SDS011;21464;48.112;11.530;2023-04-15T08:54:38;3.63;;;1.97;;
35364;SDS011;21464;48.112;11.530;2023-04-15T08:57:06;2.72;;;2.40;;
35364;SDS011;21464;48.112;11.530;2023-04-15T08:59:34;2.70;;;2.10;;
35364;SDS011;21464;48.112;11.530;2023-04-15T09:02:01;3.27;;;2.30;;
35364;SDS011;21464;48.112;11.530;2023-04-15T09:04:29;2.90;;;2.27;;
35364;SDS011;21464;48.112;11.530;2023-04-15T09:06:57;3.13;;;2.20;;
35364;SDS011;21464;48.112;11.530;2023-04-15T09:09:25;3.10;;;2.43;;
35364;SDS011;21464;48.112;11.530;2023-04-15T09:11:53;3.20;;;2.40;;
35364;SDS011;21464;48.112;11.530;2023-04-15T09:14:21;3.13;;;2.70;;
35364;SDS011;21464;48.112;11.530;2023-04-15T09:16:54;2.47;;;2.27;;
35364;SDS011;21464;48.112;11.530;2023-04-15T09:19:23;3.77;;;2.93;;
35364;SDS011;21464;48.112;11.530;2023-04-15T09:21:55;3.80;;;3.10;;
35364;SDS011;21464;48.112;11.530;2023-04-15T09:24:24;4.40;;;2.80;;
35364;SDS011;21464;48.112;11.530;2023-04-15T09:26:53;4.17;;;2.53;;
35364;SDS011;21464;48.112;11.530;2023-04-15T09:29:24;3.10;;;2.77;;
35364;SDS011;21464;48.112;11.530;2023-04-15T09:31:52;5.30;;;2.37;;
35364;SDS011;21464;48.112;11.530;2023-04-15T09:34:20;3.50;;;2.53;;
35364;SDS011;21464;48.112;11.530;2023-04-15T09:36:55;4.00;;;2.87;;
35364;SDS011;21464;48.112;11.530;2023-04-15T09:39:23;3.37;;;3.07;;
35364;SDS011;21464;48.112;11.530;2023-04-15T09:42:03;3.80;;;3.40;;
35364;SDS011;21464;48.112;11.530;2023-04-15T09:44:33;4.50;;;2.93;;
35364;SDS011;21464;48.112;11.530;2023-04-15T09:47:01;4.17;;;3.27;;
35364;SDS011;21464;48.112;11.530;2023-04-15T09:49:29;3.30;;;2.93;;
35364;SDS011;21464;48.112;11.530;2023-04-15T09:51:58;5.77;;;3.30;;
35364;SDS011;21464;48.112;11.530;2023-04-15T09:54:31;3.65;;;3.35;;
35364;SDS011;21464;48.112;11.530;2023-04-15T09:57:08;3.37;;;3.07;;
35364;SDS011;21464;48.112;11.530;2023-04-15T09:59:39;4.67;;;2.97;;
35364;SDS011;21464;48.112;11.530;2023-04-15T10:02:07;3.03;;;2.20;;
35364;SDS011;21464;48.112;11.530;2023-04-15T10:04:35;3.87;;;3.43;;
35364;SDS011;21464;48.112;11.530;2023-04-15T10:07:10;3.80;;;3.37;;
35364;SDS011;21464;48.112;11.530;2023-04-15T10:09:38;3.90;;;3.43;;
35364;SDS011;21464;48.112;11.530;2023-04-15T10:12:07;3.13;;;2.83;;
35364;SDS011;21464;48.112;11.530;2023-04-15T10:14:35;3.75;;;3.42;;
35364;SDS011;21464;48.112;11.530;2023-04-15T10:17:04;4.97;;;3.13;;
35364;SDS011;21464;48.112;11.530;2023-04-15T10:19:32;4.93;;;3.40;;
35364;SDS011;21464;48.112;11.530;2023-04-15T10:22:00;5.17;;;3.53;;
35364;SDS011;21464;48.112;11.530;2023-04-15T10:24:29;4.50;;;3.70;;
35364;SDS011;21464;48.112;11.530;2023-04-15T10:26:58;5.27;;;4.03;;
35364;SDS011;21464;48.112;11.530;2023-04-15T10:29:26;4.90;;;3.70;;
35364;SDS011;21464;48.112;11.530;2023-04-15T10:31:55;4.17;;;3.80;;
35364;SDS011;21464;48.112;11.530;2023-04-15T10:34:23;4.03;;;3.63;;
35364;SDS011;21464;48.112;11.530;2023-04-15T10:36:53;6.80;;;3.80;;
35364;SDS011;21464;48.112;11.530;2023-04-15T10:42:12;5.17;;;4.13;;
35364;SDS011;21464;48.112;11.530;2023-04-15T10:44:42;4.20;;;3.80;;
35364;SDS011;21464;48.112;11.530;2023-04-15T10:47:12;5.33;;;4.13;;
35364;SDS011;21464;48.112;11.530;2023-04-15T10:49:42;4.07;;;3.60;;
35364;SDS011;21464;48.112;11.530;2023-04-15T10:52:15;5.50;;;4.47;;
35364;SDS011;21464;48.112;11.530;2023-04-15T10:54:43;5.00;;;4.50;;
35364;SDS011;21464;48.112;11.530;2023-04-15T10:57:21;4.30;;;3.90;;
35364;SDS011;21464;48.112;11.530;2023-04-15T10:59:59;4.53;;;4.13;;
35364;SDS011;21464;48.112;11.530;2023-04-15T11:02:52;4.37;;;3.97;;
35364;SDS011;21464;48.112;11.530;2023-04-15T11:05:22;4.70;;;4.20;;
35364;SDS011;21464;48.112;11.530;2023-04-15T11:08:09;4.23;;;3.83;;
35364;SDS011;21464;48.112;11.530;2023-04-15T11:20:37;4.07;;;3.75;;
35364;SDS011;21464;48.112;11.530;2023-04-15T11:23:06;5.20;;;4.00;;
35364;SDS011;21464;48.112;11.530;2023-04-15T11:25:35;4.73;;;4.20;;
35364;SDS011;21464;48.112;11.530;2023-04-15T11:28:06;5.97;;;4.20;;
35364;SDS011;21464;48.112;11.530;2023-04-15T11:30:36;5.10;;;4.32;;
35364;SDS011;21464;48.112;11.530;2023-04-15T11:33:05;4.50;;;4.10;;
35364;SDS011;21464;48.112;11.530;2023-04-15T11:35:34;4.93;;;4.37;;
35364;SDS011;21464;48.112;11.530;2023-04-15T11:38:03;5.10;;;4.17;;
35364;SDS011;21464;48.112;11.530;2023-04-15T11:40:31;6.77;;;4.40;;
35364;SDS011;21464;48.112;11.530;2023-04-15T11:43:09;4.73;;;4.33;;
35364;SDS011;21464;48.112;11.530;2023-04-15T11:45:46;5.00;;;4.50;;
35364;SDS011;21464;48.112;11.530;2023-04-15T11:50:59;6.70;;;4.10;;
35364;SDS011;21464;48.112;11.530;2023-04-15T11:56:10;4.77;;;4.33;;
35364;SDS011;21464;48.112;11.530;2023-04-15T11:58:41;4.90;;;4.00;;
35364;SDS011;21464;48.112;11.530;2023-04-15T12:01:08;6.83;;;4.37;;
35364;SDS011;21464;48.112;11.530;2023-04-15T12:03:38;4.80;;;4.30;;
35364;SDS011;21464;48.112;11.530;2023-04-15T12:11:13;5.13;;;4.30;;
35364;SDS011;21464;48.112;11.530;2023-04-15T12:13:47;4.97;;;3.90;;
35364;SDS011;21464;48.112;11.530;2023-04-15T12:16:18;6.00;;;4.43;;
35364;SDS011;21464;48.112;11.530;2023-04-15T12:18:45;5.10;;;4.47;;
35364;SDS011;21464;48.112;11.530;2023-04-15T12:21:12;5.13;;;4.60;;
35364;SDS011;21464;48.112;11.530;2023-04-15T12:23:48;5.13;;;4.13;;
35364;SDS011;21464;48.112;11.530;2023-04-15T12:26:20;4.87;;;3.93;;
35364;SDS011;21464;48.112;11.530;2023-04-15T12:29:01;5.33;;;4.83;;
35364;SDS011;21464;48.112;11.530;2023-04-15T12:31:28;4.93;;;4.43;;
35364;SDS011;21464;48.112;11.530;2023-04-15T12:33:54;3.83;;;3.43;;
35364;SDS011;21464;48.112;11.530;2023-04-15T12:36:21;5.27;;;4.37;;
35364;SDS011;21464;48.112;11.530;2023-04-15T12:38:48;4.60;;;4.17;;
35364;SDS011;21464;48.112;11.530;2023-04-15T12:41:15;5.47;;;4.83;;
35364;SDS011;21464;48.112;11.530;2023-04-15T12:43:43;4.83;;;4.43;;
35364;SDS011;21464;48.112;11.530;2023-04-15T12:46:10;4.90;;;4.20;;
35364;SDS011;21464;48.112;11.530;2023-04-15T12:48:36;5.27;;;4.37;;
35364;SDS011;21464;48.112;11.530;2023-04-15T12:51:02;4.33;;;3.93;;
35364;SDS011;21464;48.112;11.530;2023-04-15T12:53:29;5.87;;;4.23;;
35364;SDS011;21464;48.112;11.530;2023-04-15T12:55:55;6.33;;;4.13;;
35364;SDS011;21464;48.112;11.530;2023-04-15T12:58:22;5.18;;;3.42;;
35364;SDS011;21464;48.112;11.530;2023-04-15T13:00:48;4.40;;;3.30;;
35364;SDS011;21464;48.112;11.530;2023-04-15T13:03:15;2.87;;;2.70;;
35364;SDS011;21464;48.112;11.530;2023-04-15T13:05:41;3.53;;;2.67;;
35364;SDS011;21464;48.112;11.530;2023-04-15T13:08:08;3.20;;;2.90;;
35364;SDS011;21464;48.112;11.530;2023-04-15T13:10:34;3.47;;;2.90;;
35364;SDS011;21464;48.112;11.530;2023-04-15T13:13:04;2.90;;;2.67;;
35364;SDS011;21464;48.112;11.530;2023-04-15T13:15:30;3.97;;;3.03;;
35364;SDS011;21464;48.112;11.530;2023-04-15T13:17:56;4.13;;;2.60;;
35364;SDS011;21464;48.112;11.530;2023-04-15T13:20:24;2.93;;;2.63;;
35364;SDS011;21464;48.112;11.530;2023-04-15T13:22:52;3.73;;;2.50;;
35364;SDS011;21464;48.112;11.530;2023-04-15T13:25:18;4.70;;;2.90;;
35364;SDS011;21464;48.112;11.530;2023-04-15T13:27:45;4.57;;;2.63;;
35364;SDS011;21464;48.112;11.530;2023-04-15T13:30:11;3.23;;;2.90;;
35364;SDS011;21464;48.112;11.530;2023-04-15T13:32:38;4.97;;;3.00;;
35364;SDS011;21464;48.112;11.530;2023-04-15T13:35:04;5.70;;;3.03;;
35364;SDS011;21464;48.112;11.530;2023-04-15T13:37:30;6.53;;;2.90;;
35364;SDS011;21464;48.112;11.530;2023-04-15T13:39:56;4.03;;;2.85;;
35364;SDS011;21464;48.112;11.530;2023-04-15T13:42:23;3.80;;;3.40;;
35364;SDS011;21464;48.112;11.530;2023-04-15T13:44:49;3.37;;;3.07;;
35364;SDS011;21464;48.112;11.530;2023-04-15T13:47:19;3.87;;;3.53;;
35364;SDS011;21464;48.112;11.530;2023-04-15T13:49:46;3.07;;;2.87;;
35364;SDS011;21464;48.112;11.530;2023-04-15T13:52:12;4.33;;;3.80;;
35364;SDS011;21464;48.112;11.530;2023-04-15T13:54:39;5.93;;;3.40;;
35364;SDS011;21464;48.112;11.530;2023-04-15T13:57:05;5.37;;;4.20;;
35364;SDS011;21464;48.112;11.530;2023-04-15T13:59:32;4.50;;;3.80;;
35364;SDS011;21464;48.112;11.530;2023-04-15T14:01:59;4.93;;;4.53;;
35364;SDS011;21464;48.112;11.530;2023-04-15T14:04:26;4.23;;;3.83;;
35364;SDS011;21464;48.112;11.530;2023-04-15T14:06:52;5.23;;;4.10;;
35364;SDS011;21464;48.112;11.530;2023-04-15T14:09:18;5.63;;;3.83;;
35364;SDS011;21464;48.112;11.530;2023-04-15T14:11:47;4.47;;;3.90;;
35364;SDS011;21464;48.112;11.530;2023-04-15T14:14:13;4.97;;;3.57;;
35364;SDS011;21464;48.112;11.530;2023-04-15T14:16:39;4.23;;;3.80;;
35364;SDS011;21464;48.112;11.530;2023-04-15T14:19:05;7.07;;;4.40;;
35364;SDS011;21464;48.112;11.530;2023-04-15T14:21:32;4.83;;;3.20;;
35364;SDS011;21464;48.112;11.530;2023-04-15T14:23:58;3.37;;;3.07;;
35364;SDS011;21464;48.112;11.530;2023-04-15T14:26:24;3.80;;;3.27;;
35364;SDS011;21464;48.112;11.530;2023-04-15T14:28:51;4.30;;;3.57;;
35364;SDS011;21464;48.112;11.530;2023-04-15T14:31:17;4.53;;;3.47;;
35364;SDS011;21464;48.112;11.530;2023-04-15T14:33:44;3.47;;;3.17;;
35364;SDS011;21464;48.112;11.530;2023-04-15T14:36:11;3.43;;;3.10;;
35364;SDS011;21464;48.112;11.530;2023-04-15T14:38:37;3.47;;;2.90;;
35364;SDS011;21464;48.112;11.530;2023-04-15T14:41:05;4.53;;;3.20;;
35364;SDS011;21464;48.112;11.530;2023-04-15T14:43:32;4.43;;;3.37;;
35364;SDS011;21464;48.112;11.530;2023-04-15T14:45:59;3.13;;;2.87;;
35364;SDS011;21464;48.112;11.530;2023-04-15T14:48:25;3.83;;;3.00;;
35364;SDS011;21464;48.112;11.530;2023-04-15T14:50:52;3.30;;;2.90;;
35364;SDS011;21464;48.112;11.530;2023-04-15T14:53:18;3.63;;;3.20;;
35364;SDS011;21464;48.112;11.530;2023-04-15T14:55:44;2.97;;;2.70;;
35364;SDS011;21464;48.112;11.530;2023-04-15T14:58:11;4.40;;;3.23;;
35364;SDS011;21464;48.112;11.530;2023-04-15T15:00:37;3.93;;;3.13;;
35364;SDS011;21464;48.112;11.530;2023-04-15T15:03:10;4.83;;;3.53;;
35364;SDS011;21464;48.112;11.530;2023-04-15T15:05:44;3.93;;;3.63;;
35364;SDS011;21464;48.112;11.530;2023-04-15T15:08:11;3.77;;;3.43;;
35364;SDS011;21464;48.112;11.530;2023-04-15T15:10:38;4.33;;;3.93;;
35364;SDS011;21464;48.112;11.530;2023-04-15T15:13:06;4.03;;;3.47;;